• Join FlightAware (Why Join?)
  • Login
  • US Flag 
11:20AM EDT


 

Airport Tracker/Info


-or-


 

Live Flight TrackerFlight Track Log ✈ N9370U ✈ 16-Jun-2013 ✈ KLWM - KFRG

Flight Track Log - Related Links

Times and Time Zones

All times are in EDT time to prevent confusion due to time zone crossing. See the N9370U flight status page for this flight to view local times or setup timezone preferences in your user account.

Time Position Orientation Groundspeed Altitude Reporting Facility
EDT Latitude Longitude Course Direction KTS MPH feet Rate Location/Type
11:11AM 42.7000 -71.1333 216° Southwest 77 89 700  Level KA90
11:12AM 42.6833 -71.1500 216° Southwest 102 117 1,300 660 Climbing KA90
11:13AM 42.6667 -71.1833 236° Southwest 85 98 2,200 660 Climbing KA90
11:14AM 42.6500 -71.2000 216° Southwest 81 93 2,800 600 Climbing KA90
11:15AM 42.6333 -71.2167 216° Southwest 83 96 3,400 540 Climbing KA90
11:16AM 42.6000 -71.2167 180° South 78 90 3,900 480 Climbing KA90
11:17AM 42.5833 -71.2333 216° Southwest 83 96 4,500 540 Climbing KA90
11:18AM 42.5667 -71.2500 216° Southwest 83 96 5,000 360 Climbing KA90
11:19AM 42.5500 -71.2667 216° Southwest 108 124 5,200 420 Climbing KA90
11:20AM 42.5167 -71.2833 200° South 88 101 5,900 360 Climbing KA90
11:21AM 42.5000 -71.3167 236° Southwest 101 116 6,000  Climbing KA90
11:22AM 42.4833 -71.3333 216° Southwest 117 135 6,000  Level KA90
11:23AM 42.4500 -71.3667 216° Southwest 121 139 6,000  Level KA90
11:24AM 42.4333 -71.4000 236° Southwest 122 140 6,000  Level KA90
11:25AM 42.4000 -71.4167 200° South 117 135 6,000  Level KA90
11:26AM 42.3833 -71.4500 236° Southwest 115 132 6,000  Level KA90
11:27AM 42.3464 -71.4822 213° Southwest 115 132 6,000  Level Boston Center
11:27AM 42.3381 -71.4908 217° Southwest 116 133 6,000  Level Boston Center
11:28AM 42.3133 -71.5164 217° Southwest 118 136 6,000  Level Boston Center
11:29AM 42.2883 -71.5364 211° Southwest 117 135 6,000  Level Boston Center
11:30AM 42.2803 -71.5450 218° Southwest 117 135 6,000  Level Boston Center
11:31AM 42.2553 -71.5706 217° Southwest 116 133 6,000  Level Boston Center
11:32AM 42.2283 -71.5989 218° Southwest 121 139 6,000  Level Boston Center
11:33AM 42.1975 -71.6331 219° Southwest 118 136 6,000  Level Boston Center
11:34AM 42.1914 -71.6750 259° West 113 130 6,000  Level Boston Center
11:35AM 42.1814 -71.7117 250° West 112 129 6,000  Level Boston Center
11:36AM 42.1733 -71.7511 255° West 113 130 6,000  Level Boston Center
11:37AM 42.1608 -71.7903 247° West 112 129 6,000  Level Boston Center
11:38AM 42.1278 -71.7992 191° South 128 147 6,000  Level Boston Center
11:39AM 42.0944 -71.8106 194° South 122 140 6,000  Level Boston Center
11:40AM 42.0611 -71.8250 198° South 122 140 6,000  Level Boston Center
11:41AM 42.0258 -71.8364 193° South 121 139 6,000  Level Boston Center
11:42AM 41.9944 -71.8478 195° South 123 142 6,000  Level Boston Center
11:43AM 41.9611 -71.8594 195° South 121 139 6,000  Level Boston Center
11:44AM 41.9281 -71.8708 194° South 119 137 6,000  Level Boston Center
11:45AM 41.8989 -71.8822 196° South 116 133 6,000  Level Boston Center
11:46AM 41.8633 -71.8939 194° South 118 136 6,000  Level Boston Center
11:47AM 41.8303 -71.9053 194° South 121 139 6,000  Level Boston Center
11:48AM 41.7989 -71.9167 195° South 121 139 6,000  Level Boston Center
11:49AM 41.7636 -71.9281 194° South 121 139 6,000  Level Boston Center
11:50AM 41.7325 -71.9422 199° South 119 137 6,000  Level Boston Center
11:51AM 41.7011 -71.9508 192° South 118 136 6,000  Level Boston Center
11:52AM 41.6678 -71.9622 194° South 117 135 6,000  Level Boston Center
11:53AM 41.6344 -71.9736 194° South 120 138 6,000  Level Boston Center
11:54AM 41.6056 -71.9847 196° South 117 135 6,000  Level Boston Center
11:55AM 41.5722 -71.9989 198° South 122 140 6,000  Level Boston Center
11:56AM 41.5431 -72.0214 210° Southwest 116 133 6,000  Level Boston Center
11:57AM 41.5203 -72.0492 222° Southwest 116 133 6,000  Level Boston Center
11:58AM 41.4975 -72.0769 222° Southwest 116 133 6,000  Level Boston Center
11:59AM 41.4725 -72.1075 222° Southwest 117 135 6,000  Level Boston Center
12:00PM 41.4497 -72.1383 225° Southwest 113 130 6,000  Level Boston Center
12:01PM 41.4247 -72.1661 220° Southwest 112 129 6,000  Level Boston Center
12:02PM 41.4019 -72.1967 225° Southwest 114 131 6,000  Level Boston Center
12:03PM 41.3811 -72.2269 227° Southwest 114 131 6,000  Level Boston Center
12:04PM 41.3561 -72.2547 220° Southwest 114 131 6,000  Level Boston Center
12:06PM 41.3167 -72.3167 230° Southwest 115 132 6,000  Level New York TRACON
12:07PM 41.3000 -72.3333 217° Southwest 115 132 6,000  Level New York TRACON
12:08PM 41.2667 -72.3667 217° Southwest 118 136 6,000  Level New York TRACON
12:09PM 41.2500 -72.4000 236° Southwest 115 132 6,000  Level New York TRACON
12:10PM 41.2167 -72.4167 201° Southwest 114 131 6,000  Level New York TRACON
12:11PM 41.2000 -72.4500 236° Southwest 114 131 6,000  Level New York TRACON
12:12PM 41.1833 -72.4833 236° Southwest 114 131 6,000  Level New York TRACON
12:13PM 41.1500 -72.5167 217° Southwest 112 129 6,000  Level New York TRACON
12:14PM 41.1333 -72.5333 217° Southwest 110 127 6,000  Level New York TRACON
12:15PM 41.1167 -72.5667 236° Southwest 109 125 6,000  Level New York TRACON
12:16PM 41.1000 -72.6000 236° Southwest 112 129 6,000  Level New York TRACON
12:17PM 41.0667 -72.6167 201° Southwest 110 127 6,000  Level New York TRACON
12:18PM 41.0500 -72.6500 236° Southwest 109 125 6,000  Level New York TRACON
12:19PM 41.0333 -72.6833 236° Southwest 112 129 6,000  Level New York TRACON
12:20PM 41.0167 -72.7167 236° Southwest 107 123 6,000  Level New York TRACON
12:21PM 41.0000 -72.7500 236° Southwest 107 123 6,000  Level New York TRACON
12:22PM 40.9833 -72.7833 236° Southwest 104 120 6,000  Level New York TRACON
12:23PM 40.9667 -72.8167 236° Southwest 105 121 6,000  Level New York TRACON
12:24PM 40.9500 -72.8500 237° Southwest 102 117 6,000  Level New York TRACON
12:25PM 40.9500 -72.8833 270° West 102 117 6,000  Level New York TRACON
12:26PM 40.9333 -72.9167 237° Southwest 100 115 6,000  Level New York TRACON
12:27PM 40.9167 -72.9500 237° Southwest 98 113 6,000  Level New York TRACON
12:28PM 40.9000 -72.9833 237° Southwest 99 114 6,000  Level New York TRACON
12:29PM 40.9000 -73.0167 270° West 97 112 6,000  Level New York TRACON
12:30PM 40.8833 -73.0333 217° Southwest 99 114 6,000 -120 Level New York TRACON
12:31PM 40.8667 -73.0667 237° Southwest 104 120 5,800 -600 Descending New York TRACON
12:32PM 40.8500 -73.1000 237° Southwest 116 133 4,900 -840 Descending New York TRACON
12:33PM 40.8333 -73.1500 246° West 120 138 4,200 -780 Descending New York TRACON
12:34PM 40.8167 -73.1833 237° Southwest 118 136 3,400 -600 Descending New York TRACON
12:35PM 40.8000 -73.2167 237° Southwest 112 129 3,000 -240 Descending New York TRACON
12:36PM 40.8000 -73.2500 270° West 115 132 3,000  Level New York TRACON
12:37PM 40.8000 -73.3000 270° West 114 131 3,000 -300 Level New York TRACON
12:38PM 40.8000 -73.3500 270° West 123 142 2,400 -600 Descending New York TRACON
12:39PM 40.8000 -73.3833 270° West 112 129 1,900 -600 Descending New York TRACON
12:40PM 40.7833 -73.4000 217° Southwest 86 99 1,300 -660 Descending New York TRACON
12:41PM 40.7500 -73.4167 201° Southwest 81 93 600 -720 Descending New York TRACON